Time;durP1;ratioP1;P1;durP2;ratioP2;P2;SDS_P1;SDS_P2;PMS_P1;PMS_P2;Temp;Humidity;BMP_temperature;BMP_pressure;BME280_temperature;BME280_humidity;BME280_pressure;Samples;Min_cycle;Max_cycle;Signal;HPM_P1;HPM_P2
2021/06/13 00:01:29;;;;;;;7.20;4.40;;;;;;;14.00;96.94;96851.13;4966104;28;20046;-61
2021/06/13 00:03:55;;;;;;;6.18;3.92;;;;;;;14.06;98.31;96861.50;4966176;28;20031;-61
2021/06/13 00:06:20;;;;;;;10.15;4.97;;;;;;;13.54;98.19;96782.31;4967325;28;20525;-62
2021/06/13 00:08:46;;;;;;;6.80;3.80;;;;;;;14.10;98.09;96867.06;4966075;28;20031;-61
2021/06/13 00:11:12;;;;;;;7.68;4.30;;;;;;;13.93;99.04;96845.53;4967124;28;20031;-62
2021/06/13 00:13:38;;;;;;;6.47;4.72;;;;;;;13.76;98.42;96829.63;4968053;28;20045;-62
2021/06/13 00:16:04;;;;;;;7.53;4.28;;;;;;;13.36;98.13;96767.56;4967694;28;20478;-62
2021/06/13 00:18:30;;;;;;;5.85;4.68;;;;;;;13.92;98.37;96858.69;4966084;28;20038;-62
2021/06/13 00:20:56;;;;;;;8.55;4.10;;;;;;;13.94;98.94;96877.78;4967227;28;20039;-61
2021/06/13 00:23:22;;;;;;;5.60;4.70;;;;;;;13.88;98.48;96865.47;4953676;28;20449;-62
2021/06/13 00:25:48;;;;;;;12.40;5.07;;;;;;;13.98;96.74;96867.44;4946156;29;20031;-62
2021/06/13 00:28:14;;;;;;;5.93;4.22;;;;;;;12.95;97.41;96721.75;4948019;28;20456;-61
2021/06/13 00:30:40;;;;;;;8.43;4.75;;;;;;;13.76;97.62;96832.41;4948292;28;20570;-62
2021/06/13 00:33:05;;;;;;;6.53;4.57;;;;;;;13.92;98.23;96866.25;4947824;28;20094;-63
2021/06/13 00:35:31;;;;;;;7.88;4.38;;;;;;;13.30;97.63;96752.44;4947658;28;20047;-62
2021/06/13 00:37:56;;;;;;;7.78;4.75;;;;;;;13.60;98.34;96800.19;4947829;28;20569;-63
2021/06/13 00:40:26;;;;;;;6.88;4.55;;;;;;;13.90;98.56;96863.06;4930935;28;20138;-62
2021/06/13 00:42:53;;;;;;;8.52;4.72;;;;;;;13.90;97.57;96846.34;4947846;28;20490;-62
2021/06/13 00:45:18;;;;;;;6.60;4.53;;;;;;;13.40;97.29;96762.00;4945999;29;20039;-62
2021/06/13 00:47:45;;;;;;;8.10;4.93;;;;;;;13.22;95.78;96728.59;4947098;29;20094;-61
2021/06/13 00:50:18;;;;;;;11.90;6.20;;;;;;;13.93;96.14;96839.97;4947635;28;20031;-61
2021/06/13 00:52:44;;;;;;;9.05;5.72;;;;;;;13.39;96.26;96775.13;4947286;28;20125;-61
2021/06/13 00:55:09;;;;;;;9.60;5.65;;;;;;;13.76;98.24;96851.91;4947382;28;20578;-61
2021/06/13 00:57:36;;;;;;;9.52;4.65;;;;;;;13.76;98.82;96841.56;4947814;28;20035;-61
2021/06/13 01:00:04;;;;;;;6.88;4.28;;;;;;;13.76;98.19;96837.97;4947425;28;20038;-61
2021/06/13 01:02:29;;;;;;;6.30;4.18;;;;;;;13.67;98.69;96843.94;4947268;28;20035;-60
2021/06/13 01:04:55;;;;;;;8.25;4.22;;;;;;;13.64;98.51;96839.94;4946423;28;20097;-62
2021/06/13 01:07:28;;;;;;;9.52;4.78;;;;;;;13.65;97.90;96835.19;4947543;28;20489;-61
2021/06/13 01:10:01;;;;;;;6.38;4.63;;;;;;;13.72;98.41;96835.19;4947472;28;20149;-61
2021/06/13 01:12:39;;;;;;;8.43;4.78;;;;;;;13.70;97.58;96899.59;4947053;28;20054;-62
2021/06/13 01:15:14;;;;;;;7.85;4.97;;;;;;;13.63;98.44;96830.03;4977954;28;20039;-61
2021/06/13 01:18:00;;;;;;;5.90;4.88;;;;;;;13.68;98.27;96818.50;4947377;28;20425;-60
2021/06/13 01:20:37;;;;;;;5.75;4.82;;;;;;;13.16;98.84;96773.88;4945107;29;20117;-61
2021/06/13 01:23:22;;;;;;;10.48;4.95;;;;;;;13.52;99.02;96829.22;4957910;28;20058;-62
2021/06/13 01:25:48;;;;;;;9.68;4.75;;;;;;;13.61;98.83;96821.25;4976402;28;20039;-61
2021/06/13 01:28:40;;;;;;;7.88;4.82;;;;;;;13.55;98.99;96817.28;4966488;28;20045;-61
2021/06/13 01:31:07;;;;;;;6.85;5.10;;;;;;;13.49;99.65;96816.09;4965904;28;20054;-61
2021/06/13 01:33:34;;;;;;;5.72;4.68;;;;;;;13.40;99.81;96801.72;4966125;28;20074;-61
2021/06/13 01:36:01;;;;;;;8.02;5.05;;;;;;;13.56;98.62;96815.31;4965828;28;20096;-62
2021/06/13 01:38:29;;;;;;;7.40;4.90;;;;;;;13.45;97.93;96820.81;4964720;28;20046;-61
2021/06/13 01:40:56;;;;;;;5.68;4.65;;;;;;;13.47;98.20;96821.25;4965379;28;20474;-61
2021/06/13 01:43:22;;;;;;;7.00;5.15;;;;;;;13.46;97.10;96827.19;4964865;28;20407;-61
2021/06/13 01:45:53;;;;;;;6.45;4.38;;;;;;;12.90;97.94;96771.41;4965709;28;20506;-61
2021/06/13 01:48:19;;;;;;;5.78;4.38;;;;;;;12.02;99.95;96668.22;4964638;28;20046;-61
2021/06/13 01:50:45;;;;;;;8.15;5.13;;;;;;;12.80;100.00;96761.84;4965328;28;20034;-61
2021/06/13 01:53:12;;;;;;;8.35;4.65;;;;;;;13.20;100.00;96825.53;4965690;28;20137;-61
2021/06/13 01:55:41;;;;;;;5.70;4.80;;;;;;;12.85;99.43;96753.09;4965731;28;20101;-62
2021/06/13 01:58:08;;;;;;;10.52;4.50;;;;;;;13.18;98.31;96816.78;4965813;28;20509;-62
2021/06/13 02:00:38;;;;;;;6.80;4.75;;;;;;;13.38;97.86;96815.25;4965612;28;20083;-62
2021/06/13 02:03:05;;;;;;;8.80;4.70;;;;;;;13.33;97.33;96812.88;4965574;28;20066;-62
2021/06/13 02:05:33;;;;;;;11.38;5.95;;;;;;;13.30;97.05;96818.41;4965260;28;20070;-62
2021/06/13 02:07:59;;;;;;;9.43;4.68;;;;;;;13.34;96.93;96814.44;4964187;28;20035;-62
2021/06/13 02:10:25;;;;;;;10.45;5.18;;;;;;;12.76;97.90;96732.41;4963694;28;20121;-61
2021/06/13 02:12:51;;;;;;;9.52;5.25;;;;;;;13.25;99.24;96811.25;4966299;28;20041;-62
2021/06/13 02:15:20;;;;;;;8.15;5.50;;;;;;;12.47;98.47;96681.50;4965392;28;20519;-62
2021/06/13 02:17:47;;;;;;;7.20;5.03;;;;;;;12.83;99.43;96743.56;4964317;28;20039;-61
2021/06/13 02:20:17;;;;;;;6.78;5.72;;;;;;;12.84;100.00;96751.50;4963512;28;20118;-62
2021/06/13 02:22:43;;;;;;;7.53;5.03;;;;;;;13.00;99.19;96768.66;4965313;28;20141;-61
2021/06/13 02:25:10;;;;;;;7.97;5.38;;;;;;;13.17;99.50;96815.19;4963284;28;20134;-61
2021/06/13 02:27:36;;;;;;;6.68;5.20;;;;;;;13.14;98.42;96804.84;4965544;28;20030;-61
2021/06/13 02:30:06;;;;;;;9.80;5.97;;;;;;;13.27;97.47;96802.50;4964972;28;20030;-62
2021/06/13 02:32:35;;;;;;;15.05;5.60;;;;;;;13.08;98.17;96788.94;4965537;28;20038;-62
2021/06/13 02:35:01;;;;;;;7.03;4.97;;;;;;;12.59;98.25;96706.16;4980219;28;20336;-64
2021/06/13 02:37:29;;;;;;;7.88;5.53;;;;;;;12.89;97.62;96748.34;4964653;28;20525;-61
2021/06/13 02:39:55;;;;;;;5.80;4.85;;;;;;;13.17;99.12;96801.28;4963232;28;20046;-62
2021/06/13 02:42:20;;;;;;;6.57;4.82;;;;;;;13.25;98.56;96805.69;4964930;28;20039;-61
2021/06/13 02:44:47;;;;;;;9.20;4.82;;;;;;;13.08;98.39;96784.19;4979310;28;20085;-62
2021/06/13 02:47:13;;;;;;;12.25;5.20;;;;;;;13.16;99.05;96802.50;4963276;28;20434;-61
2021/06/13 02:49:39;;;;;;;6.05;5.05;;;;;;;13.16;100.00;96791.38;4965647;28;20452;-61
2021/06/13 02:52:26;;;;;;;8.85;5.65;;;;;;;13.27;100.00;96800.53;4979080;28;20030;-63
2021/06/13 02:54:58;;;;;;;10.35;5.45;;;;;;;13.42;99.71;96798.59;4963223;28;20081;-62
2021/06/13 03:00:26;;;;;;;5.18;4.40;;;;;;;13.46;95.70;96800.19;4964340;28;20049;-62
2021/06/13 03:02:53;;;;;;;13.77;4.70;;;;;;;12.70;94.23;96684.75;4964964;28;20058;-63
2021/06/13 03:05:24;;;;;;;8.52;4.55;;;;;;;13.40;94.62;96789.81;4964674;28;20146;-61
2021/06/13 03:07:51;;;;;;;6.25;4.43;;;;;;;13.37;95.18;96796.19;4965233;28;20142;-61
2021/06/13 03:10:17;;;;;;;8.20;4.15;;;;;;;13.50;95.44;96797.38;4964238;28;20074;-63
2021/06/13 03:12:43;;;;;;;8.68;4.20;;;;;;;13.47;95.46;96773.94;4965032;28;20569;-61
2021/06/13 03:15:10;;;;;;;5.50;4.07;;;;;;;13.61;94.10;96790.66;4964334;28;20035;-61
2021/06/13 03:17:37;;;;;;;5.90;4.07;;;;;;;13.66;94.14;96787.47;4979536;28;20117;-62
2021/06/13 03:20:05;;;;;;;8.23;4.80;;;;;;;13.24;94.95;96717.88;4979002;28;20090;-62
2021/06/13 03:22:33;;;;;;;8.18;4.57;;;;;;;13.73;94.99;96783.09;4963538;28;20043;-63
2021/06/13 03:25:00;;;;;;;7.85;4.72;;;;;;;13.77;94.71;96786.69;4964571;28;20039;-62
2021/06/13 03:27:26;;;;;;;9.65;4.30;;;;;;;13.90;94.57;96785.09;4964003;28;20042;-62
2021/06/13 03:29:53;;;;;;;7.28;4.82;;;;;;;13.05;94.97;96690.44;4964498;28;20097;-62
2021/06/13 03:32:20;;;;;;;6.22;4.38;;;;;;;14.01;94.79;96791.44;4978877;28;20084;-61
2021/06/13 03:34:47;;;;;;;5.90;4.30;;;;;;;14.05;95.26;96792.25;4964736;28;20503;-61
2021/06/13 03:37:13;;;;;;;5.53;4.40;;;;;;;14.15;93.81;96791.44;4962843;28;20094;-62
2021/06/13 03:39:42;;;;;;;8.52;4.90;;;;;;;14.07;94.49;96759.25;4964499;28;20039;-63
2021/06/13 03:42:10;;;;;;;7.00;4.70;;;;;;;14.35;94.27;96779.50;4962537;28;20090;-63
2021/06/13 03:44:35;;;;;;;7.53;5.03;;;;;;;13.90;93.88;96690.41;4962860;28;20051;-62
2021/06/13 03:47:02;;;;;;;7.47;4.90;;;;;;;14.52;93.92;96773.09;4964222;28;20033;-62
2021/06/13 03:49:27;;;;;;;7.47;5.15;;;;;;;14.52;92.66;96744.44;4964023;28;20038;-62
2021/06/13 03:51:54;;;;;;;6.95;5.00;;;;;;;14.76;92.65;96765.84;4962676;28;20474;-62
2021/06/13 03:54:20;;;;;;;7.07;5.10;;;;;;;14.29;90.47;96668.88;4964328;28;20113;-61
2021/06/13 03:56:53;;;;;;;7.03;5.38;;;;;;;14.64;90.87;96727.25;4963792;28;20043;-61
2021/06/13 03:59:24;;;;;;;7.40;4.45;;;;;;;14.68;90.45;96702.97;4964454;28;20043;-61
2021/06/13 04:01:50;;;;;;;10.20;4.63;;;;;;;15.11;90.12;96760.13;4979024;28;20046;-62
2021/06/13 04:04:17;;;;;;;6.00;4.18;;;;;;;15.11;89.48;96754.53;4982468;28;20038;-61
2021/06/13 04:06:46;;;;;;;9.25;4.72;;;;;;;15.25;89.38;96776.78;4967505;28;20035;-61
2021/06/13 04:09:14;;;;;;;10.50;6.78;;;;;;;15.35;89.13;96773.13;4982553;28;20043;-64
2021/06/13 04:11:42;;;;;;;6.05;5.45;;;;;;;15.25;89.60;96796.31;4981934;28;20112;-61
2021/06/13 04:14:11;;;;;;;10.88;5.63;;;;;;;15.00;90.01;96731.50;4982133;28;20065;-61
2021/06/13 04:16:37;;;;;;;6.05;5.15;;;;;;;15.16;90.14;96756.88;4981744;28;20027;-62
2021/06/13 04:19:03;;;;;;;8.00;5.72;;;;;;;15.47;90.49;96775.50;4967587;28;20129;-62
2021/06/13 04:21:29;;;;;;;10.77;5.68;;;;;;;15.61;89.60;96771.78;4967512;28;20588;-61
2021/06/13 04:23:57;;;;;;;6.05;5.45;;;;;;;15.80;88.06;96774.84;4967530;28;20081;-61
2021/06/13 04:26:25;;;;;;;8.10;5.30;;;;;;;15.91;87.61;96772.78;4965747;28;20082;-61
2021/06/13 04:28:51;;;;;;;9.18;4.85;;;;;;;13.28;85.89;96343.16;4967256;28;20035;-61
2021/06/13 04:31:18;;;;;;;8.52;5.10;;;;;;;15.85;85.55;96732.53;4966628;28;20047;-62
2021/06/13 04:33:45;;;;;;;6.53;5.78;;;;;;;15.81;85.36;96709.41;4966975;28;20046;-61
2021/06/13 04:36:12;;;;;;;5.72;5.13;;;;;;;16.29;85.95;96777.22;4966812;28;20078;-61
2021/06/13 04:38:39;;;;;;;7.97;5.03;;;;;;;16.45;85.57;96777.47;4965649;28;20488;-62
2021/06/13 04:41:06;;;;;;;8.48;4.50;;;;;;;16.66;83.87;96776.44;4967066;28;20193;-62
2021/06/13 04:43:33;;;;;;;5.13;4.47;;;;;;;16.70;82.76;96779.22;4967483;28;20031;-61
2021/06/13 04:46:01;;;;;;;7.32;4.55;;;;;;;16.83;82.56;96780.25;4966335;28;20038;-60
2021/06/13 04:48:26;;;;;;;7.28;5.30;;;;;;;16.44;82.90;96702.38;4981524;28;20036;-60
2021/06/13 04:50:52;;;;;;;6.20;4.65;;;;;;;16.26;82.99;96674.63;4966684;28;20039;-62
2021/06/13 04:53:52;;;;;;;6.65;4.78;;;;;;;17.24;82.60;96775.34;4965100;28;20047;-62
2021/06/13 04:56:36;;;;;;;6.57;4.20;;;;;;;17.25;82.88;96762.94;4964988;28;20112;-61
2021/06/13 04:59:01;;;;;;;;;;;;;;;17.57;82.25;96757.72;4967718;28;20035;-64
2021/06/13 05:01:27;;;;;;;8.38;4.80;;;;;;;17.42;81.38;96717.13;4966687;28;19937;-61
2021/06/13 05:03:53;;;;;;;4.30;3.90;;;;;;;17.82;80.64;96763.72;4966895;28;20082;-62
2021/06/13 05:06:20;;;;;;;8.20;4.90;;;;;;;18.09;80.13;96750.47;4966480;28;20085;-63
2021/06/13 05:08:45;;;;;;;4.82;4.32;;;;;;;17.72;79.10;96708.66;4966885;28;20035;-62
2021/06/13 05:11:12;;;;;;;6.45;4.35;;;;;;;18.29;78.18;96754.09;4964748;28;20035;-63
2021/06/13 05:13:38;;;;;;;12.20;4.70;;;;;;;18.45;77.10;96751.44;4964542;28;20055;-62
2021/06/13 05:16:04;;;;;;;9.75;5.32;;;;;;;18.57;75.64;96728.41;4965656;28;20075;-63
2021/06/13 05:18:29;;;;;;;6.55;4.63;;;;;;;18.20;75.54;96647.34;4966472;28;20190;-62
2021/06/13 05:20:55;;;;;;;6.47;4.18;;;;;;;18.93;75.17;96760.16;4966188;28;20322;-61
2021/06/13 05:23:22;;;;;;;9.20;4.95;;;;;;;18.87;74.05;96705.75;4966164;28;20568;-65
2021/06/13 05:26:07;;;;;;;8.32;4.38;;;;;;;19.24;73.65;96758.69;4966134;28;20495;-61
2021/06/13 05:28:32;;;;;;;7.78;4.75;;;;;;;18.59;75.97;96700.69;4981038;28;20468;-62
2021/06/13 05:30:58;;;;;;;5.25;4.10;;;;;;;18.29;76.65;96658.75;4964499;28;20035;-63
2021/06/13 05:33:25;;;;;;;5.95;4.35;;;;;;;18.85;76.30;96691.34;4964946;28;20418;-63
2021/06/13 05:35:51;;;;;;;4.38;3.97;;;;;;;19.58;74.14;96732.28;4965850;28;20039;-62
2021/06/13 05:38:17;;;;;;;9.25;4.40;;;;;;;19.27;74.66;96717.69;4980688;28;20089;-62
2021/06/13 05:40:43;;;;;;;6.47;4.25;;;;;;;19.62;74.34;96662.75;4965703;28;20041;-64
2021/06/13 05:43:10;;;;;;;7.32;4.32;;;;;;;20.56;71.11;96741.06;4966002;28;20035;-61
2021/06/13 05:45:37;;;;;;;5.32;4.15;;;;;;;20.74;70.99;96755.44;4964034;28;20050;-61
2021/06/13 05:48:04;;;;;;;6.82;5.57;;;;;;;21.03;69.89;96747.81;4980573;28;20740;-62
2021/06/13 05:50:30;;;;;;;6.00;4.95;;;;;;;20.52;68.76;96625.78;4965394;28;20479;-63
2021/06/13 05:53:14;;;;;;;6.15;4.28;;;;;;;21.56;67.98;96730.09;4965719;28;20613;-62
2021/06/13 05:55:40;;;;;;;5.03;4.50;;;;;;;20.88;66.25;96611.47;4965411;28;20047;-61
2021/06/13 05:58:06;;;;;;;5.93;4.65;;;;;;;21.63;66.53;96718.63;4965308;28;20473;-62
2021/06/13 06:00:34;;;;;;;5.63;4.32;;;;;;;21.86;65.43;96740.09;4963806;28;20046;-61
2021/06/13 06:02:59;;;;;;;4.70;4.28;;;;;;;21.94;65.47;96733.75;4965649;28;20034;-62
2021/06/13 06:05:26;;;;;;;7.88;4.53;;;;;;;21.92;64.99;96722.16;4965048;28;20112;-64
2021/06/13 06:07:52;;;;;;;8.48;4.93;;;;;;;19.94;65.75;96418.13;4965651;28;20045;-61
2021/06/13 06:10:20;;;;;;;8.70;4.57;;;;;;;22.16;65.71;96726.16;4964938;28;20094;-63
2021/06/13 06:12:46;;;;;;;5.70;4.18;;;;;;;22.36;65.23;96723.88;4963656;28;20486;-63
2021/06/13 06:15:17;;;;;;;4.32;3.78;;;;;;;21.96;65.94;96725.63;4964726;28;20041;-63
2021/06/13 06:17:43;;;;;;;5.47;3.83;;;;;;;21.97;65.12;96727.19;4965306;28;20034;-62
2021/06/13 06:20:10;;;;;;;7.97;4.80;;;;;;;21.42;65.67;96659.31;4963074;28;20038;-63
2021/06/13 06:22:35;;;;;;;7.95;4.43;;;;;;;22.01;64.45;96724.28;4964918;28;20403;-64
2021/06/13 06:25:01;;;;;;;7.22;4.13;;;;;;;22.23;64.49;96706.19;4979613;28;20037;-63
2021/06/13 06:27:26;;;;;;;5.25;3.72;;;;;;;22.56;62.07;96720.03;4965327;28;20085;-63
2021/06/13 06:29:52;;;;;;;4.80;4.32;;;;;;;22.48;60.91;96694.81;4965207;28;20034;-62
2021/06/13 06:32:17;;;;;;;6.05;4.40;;;;;;;22.52;60.92;96660.06;4979513;28;20490;-63
2021/06/13 06:34:43;;;;;;;5.70;4.03;;;;;;;23.01;60.71;96697.78;4963479;28;20038;-64
2021/06/13 06:37:08;;;;;;;8.35;4.88;;;;;;;22.95;60.41;96631.81;4979170;28;20137;-61
2021/06/13 06:39:34;;;;;;;5.65;4.03;;;;;;;22.97;60.19;96612.38;4964927;28;20033;-61
2021/06/13 06:41:59;;;;;;;5.22;4.35;;;;;;;23.37;59.24;96686.72;4964791;28;20042;-61
2021/06/13 06:44:25;;;;;;;4.38;4.07;;;;;;;23.81;58.89;96693.84;4965131;28;20042;-62
2021/06/13 06:46:51;;;;;;;5.20;3.85;;;;;;;23.34;58.05;96614.16;4979557;28;20039;-62
2021/06/13 06:49:16;;;;;;;5.20;4.57;;;;;;;23.57;59.51;96644.72;4965430;28;20037;-62
2021/06/13 06:51:42;;;;;;;6.72;4.35;;;;;;;24.01;57.28;96690.63;4964437;28;20042;-63
2021/06/13 06:54:07;;;;;;;4.60;4.25;;;;;;;23.65;57.19;96607.19;4964693;28;20054;-62
2021/06/13 06:56:33;;;;;;;6.50;5.18;;;;;;;22.53;56.80;96368.00;4979185;28;20049;-63
2021/06/13 06:58:58;;;;;;;5.07;4.53;;;;;;;24.34;56.37;96635.03;4964952;28;20027;-62
2021/06/13 07:01:25;;;;;;;7.45;4.68;;;;;;;24.85;55.11;96690.63;4963055;28;20058;-61
2021/06/13 07:03:50;;;;;;;5.70;4.18;;;;;;;24.80;54.64;96679.13;4964070;28;20565;-62
2021/06/13 07:06:16;;;;;;;6.60;4.47;;;;;;;24.86;55.45;96618.53;4964464;28;20035;-62
2021/06/13 07:08:41;;;;;;;4.82;4.40;;;;;;;25.82;54.26;96674.31;4963286;28;20481;-62
2021/06/13 07:11:07;;;;;;;5.30;4.78;;;;;;;25.61;53.76;96601.63;4962824;28;20035;-63
2021/06/13 07:13:33;;;;;;;5.00;4.45;;;;;;;25.73;53.51;96648.84;4995301;28;20452;-62
2021/06/13 07:15:58;;;;;;;4.97;4.47;;;;;;;25.80;52.74;96651.34;4964424;28;20409;-62
2021/06/13 07:18:24;;;;;;;5.47;4.97;;;;;;;25.87;53.12;96648.13;4964672;28;20031;-62
2021/06/13 07:20:49;;;;;;;5.20;4.70;;;;;;;25.24;54.32;96658.41;4995096;28;20130;-62
2021/06/13 07:23:15;;;;;;;8.73;4.47;;;;;;;24.41;57.04;96646.03;4964372;28;20066;-62
2021/06/13 07:25:40;;;;;;;8.13;5.45;;;;;;;24.85;56.71;96642.44;4964272;28;20410;-62
2021/06/13 07:28:06;;;;;;;7.40;5.72;;;;;;;24.55;56.08;96612.22;4963771;28;20106;-62
2021/06/13 07:30:33;;;;;;;10.15;5.03;;;;;;;24.01;55.82;96538.63;4964445;28;20114;-62
2021/06/13 07:33:02;;;;;;;4.60;4.20;;;;;;;24.80;55.85;96645.91;4964157;28;20433;-63
2021/06/13 07:35:27;;;;;;;5.30;4.65;;;;;;;24.39;56.36;96564.38;4964024;28;20459;-62
2021/06/13 07:37:53;;;;;;;6.10;4.70;;;;;;;24.93;55.60;96635.19;4966091;28;20070;-62
2021/06/13 07:40:21;;;;;;;6.13;5.00;;;;;;;24.91;54.93;96640.53;4966162;28;20442;-64
2021/06/13 07:42:46;;;;;;;4.75;4.35;;;;;;;24.99;54.53;96630.44;4967770;28;20069;-62
2021/06/13 07:45:13;;;;;;;4.53;4.13;;;;;;;24.38;54.26;96579.81;4965328;28;20501;-63
2021/06/13 07:47:39;;;;;;;4.57;4.18;;;;;;;25.16;54.31;96634.53;4982460;28;20110;-63
2021/06/13 07:50:07;;;;;;;4.30;3.88;;;;;;;25.81;51.59;96621.69;4982593;28;20081;-63
2021/06/13 07:52:32;;;;;;;4.65;4.25;;;;;;;25.68;50.76;96538.81;4967891;28;20085;-62
2021/06/13 07:54:58;;;;;;;5.28;4.43;;;;;;;26.73;49.25;96618.53;4967619;28;20482;-62
2021/06/13 07:57:24;;;;;;;4.55;4.03;;;;;;;27.06;48.00;96619.19;4966150;28;20036;-62
2021/06/13 07:59:49;;;;;;;5.20;4.75;;;;;;;27.04;47.10;96564.84;4967762;28;20039;-64
2021/06/13 08:02:15;;;;;;;4.93;3.95;;;;;;;27.24;46.31;96587.69;4981855;28;20035;-62
2021/06/13 08:05:07;;;;;;;4.65;4.22;;;;;;;27.54;46.77;96623.41;4967490;28;20442;-63
2021/06/13 08:07:33;;;;;;;5.88;5.38;;;;;;;27.78;45.72;96623.25;4967909;28;20035;-64
2021/06/13 08:09:58;;;;;;;9.65;5.47;;;;;;;27.91;45.09;96620.91;4967514;28;20053;-62
2021/06/13 08:12:23;;;;;;;4.78;4.30;;;;;;;27.86;44.37;96588.19;4967068;28;20038;-62
2021/06/13 08:14:49;;;;;;;7.13;4.30;;;;;;;28.07;43.71;96623.97;4965969;28;20042;-62
2021/06/13 08:17:15;;;;;;;5.35;4.03;;;;;;;27.63;44.05;96611.13;4967686;28;20035;-62
2021/06/13 08:19:40;;;;;;;4.53;3.88;;;;;;;26.93;43.16;96504.97;4967174;28;20038;-62
2021/06/13 08:22:06;;;;;;;4.90;4.53;;;;;;;27.43;43.36;96611.84;4967070;28;20041;-64
2021/06/13 08:24:32;;;;;;;4.05;3.75;;;;;;;27.57;42.58;96613.88;4967224;28;20141;-62
2021/06/13 08:26:58;;;;;;;4.28;3.97;;;;;;;27.63;43.11;96600.50;4965374;28;20391;-62
2021/06/13 08:30:02;;;;;;;5.57;4.10;;;;;;;27.44;42.99;96604.84;4965808;28;20444;-62
2021/06/13 08:32:27;;;;;;;7.05;6.35;;;;;;;27.62;42.27;96581.88;4967313;28;20047;-62
2021/06/13 08:34:54;;;;;;;7.55;6.32;;;;;;;27.91;42.94;96598.91;4966458;28;20095;-61
2021/06/13 08:37:19;;;;;;;7.05;4.25;;;;;;;28.03;42.22;96599.84;4981862;28;20101;-61
2021/06/13 08:39:44;;;;;;;5.88;4.78;;;;;;;27.90;40.93;96599.41;4967294;28;20042;-62
2021/06/13 08:42:10;;;;;;;4.60;4.20;;;;;;;27.49;42.07;96561.50;4967004;28;20046;-61
2021/06/13 08:44:35;;;;;;;4.50;4.10;;;;;;;27.48;43.50;96598.97;4967277;28;20085;-62
2021/06/13 08:47:02;;;;;;;4.63;4.30;;;;;;;27.43;43.46;96591.91;4966510;28;20514;-64
2021/06/13 08:49:28;;;;;;;5.18;4.68;;;;;;;27.25;44.66;96575.03;4982002;28;20035;-61
2021/06/13 08:51:54;;;;;;;6.10;4.82;;;;;;;26.64;45.03;96564.63;4967390;28;20043;-62
2021/06/13 08:54:21;;;;;;;6.35;4.63;;;;;;;26.03;45.55;96525.69;4981247;28;20051;-63
2021/06/13 08:57:25;;;;;;;4.97;4.55;;;;;;;26.07;47.07;96580.22;4966688;28;20046;-62
2021/06/13 08:59:50;;;;;;;16.30;11.35;;;;;;;25.77;47.45;96558.63;4966597;28;20047;-61
2021/06/13 09:02:17;;;;;;;9.73;5.30;;;;;;;24.71;48.09;96441.94;4981046;28;20100;-62
2021/06/13 09:04:42;;;;;;;6.05;4.63;;;;;;;25.37;48.89;96584.53;4966432;28;20027;-63
2021/06/13 09:07:25;;;;;;;5.30;4.60;;;;;;;25.20;48.83;96592.59;4981213;28;20042;-62
2021/06/13 09:09:52;;;;;;;6.47;4.68;;;;;;;25.08;50.02;96604.13;4966637;28;20066;-63
2021/06/13 09:12:19;;;;;;;5.05;4.55;;;;;;;24.83;51.12;96581.84;4964996;28;20038;-64
2021/06/13 09:14:47;;;;;;;6.78;4.57;;;;;;;24.80;52.12;96606.22;4964886;28;20039;-65
2021/06/13 09:17:32;;;;;;;5.00;4.50;;;;;;;24.17;52.18;96529.78;4980877;28;20055;-65
2021/06/13 09:20:23;;;;;;;6.25;5.03;;;;;;;24.39;53.57;96621.00;4964651;28;20125;-65
2021/06/13 09:23:15;;;;;;;6.45;5.72;;;;;;;23.79;56.89;96628.44;4966210;28;20514;-63
2021/06/13 09:25:43;;;;;;;6.43;4.90;;;;;;;22.73;62.02;96608.44;4965729;28;20047;-63
2021/06/13 09:28:14;;;;;;;7.15;5.25;;;;;;;21.83;70.70;96664.84;4980583;28;20035;-63
2021/06/13 09:30:43;;;;;;;9.18;4.38;;;;;;;20.35;74.77;96634.72;4964383;28;20096;-62
2021/06/13 09:33:18;;;;;;;3.75;2.72;;;;;;;19.72;76.87;96639.19;4966546;28;20035;-62
2021/06/13 09:35:46;;;;;;;3.78;2.83;;;;;;;19.00;79.83;96636.47;4964116;28;20453;-62
2021/06/13 09:38:27;;;;;;;3.67;2.08;;;;;;;18.93;84.48;96675.94;4966114;28;20076;-63
2021/06/13 09:40:55;;;;;;;2.40;2.20;;;;;;;18.59;87.91;96672.63;4965851;28;20105;-62
2021/06/13 09:43:23;;;;;;;2.40;2.05;;;;;;;18.31;89.35;96678.78;4966013;28;20601;-61
2021/06/13 09:45:55;;;;;;;6.47;3.42;;;;;;;18.27;92.88;96678.06;4965666;28;20042;-65
2021/06/13 09:48:21;;;;;;;4.85;2.75;;;;;;;18.35;92.00;96668.28;4965935;28;20038;-63
2021/06/13 09:50:53;;;;;;;4.65;2.88;;;;;;;18.35;92.82;96673.91;4963839;28;20173;-61
2021/06/13 09:53:30;;;;;;;4.50;2.50;;;;;;;18.28;94.52;96631.97;4965431;28;20057;-62
2021/06/13 09:56:09;;;;;;;5.22;2.10;;;;;;;18.57;94.87;96663.88;4980248;28;20182;-63
2021/06/13 09:58:46;;;;;;;4.68;2.92;;;;;;;18.68;100.00;96666.44;4964277;28;20042;-63
2021/06/13 10:01:11;;;;;;;4.85;2.60;;;;;;;18.70;97.48;96661.97;4963442;28;20046;-62
2021/06/13 10:03:37;;;;;;;6.20;2.63;;;;;;;17.99;96.00;96549.63;4965756;28;20468;-64
2021/06/13 10:06:05;;;;;;;6.20;2.75;;;;;;;18.73;100.00;96666.72;4965492;28;20042;-63
2021/06/13 10:08:31;;;;;;;5.40;2.75;;;;;;;18.76;100.00;96663.03;4965541;28;20510;-62
2021/06/13 10:11:00;;;;;;;10.23;3.40;;;;;;;18.80;100.00;96660.97;4964872;28;20054;-62
2021/06/13 10:13:49;;;;;;;4.10;3.28;;;;;;;18.84;100.00;96661.66;4965399;28;20034;-62
2021/06/13 10:16:26;;;;;;;4.72;3.38;;;;;;;18.95;99.06;96651.00;4965448;28;20074;-62
2021/06/13 10:19:18;;;;;;;9.50;5.85;;;;;;;18.94;100.00;96649.44;4965951;28;20158;-63
2021/06/13 10:21:46;;;;;;;18.25;11.60;;;;;;;18.34;100.00;96543.28;4966981;28;20059;-63
2021/06/13 10:24:20;;;;;;;11.63;5.90;;;;;;;19.34;100.00;96661.38;4964616;28;20031;-62
2021/06/13 10:26:48;;;;;;;13.25;7.03;;;;;;;19.58;100.00;96656.41;4963238;28;20415;-64
2021/06/13 10:29:21;;;;;;;15.55;8.80;;;;;;;19.93;100.00;96655.53;4965582;28;20042;-62
2021/06/13 10:31:49;;;;;;;10.20;5.68;;;;;;;20.20;97.90;96667.28;4964950;28;20038;-62
2021/06/13 10:34:16;;;;;;;5.57;4.80;;;;;;;19.80;93.09;96649.81;4963751;28;20078;-63
2021/06/13 10:36:42;;;;;;;8.85;5.30;;;;;;;19.64;94.65;96657.47;4965175;28;20039;-62
2021/06/13 10:39:10;;;;;;;14.43;7.57;;;;;;;19.81;96.07;96659.03;4965021;28;20027;-63
2021/06/13 10:41:36;;;;;;;8.68;6.72;;;;;;;19.85;98.07;96699.91;4979270;28;20425;-63
2021/06/13 10:44:10;;;;;;;8.15;6.63;;;;;;;19.57;98.15;96619.06;4965254;28;20092;-65
2021/06/13 10:46:37;;;;;;;11.43;8.27;;;;;;;19.53;100.00;96660.53;4963016;28;20046;-62
2021/06/13 10:49:05;;;;;;;13.95;9.30;;;;;;;19.15;100.00;96643.34;4963039;28;20053;-62
2021/06/13 10:51:35;;;;;;;15.68;9.80;;;;;;;19.40;100.00;96643.59;4964344;28;20039;-62
2021/06/13 10:54:24;;;;;;;7.65;6.88;;;;;;;19.69;100.00;96631.66;4963425;28;20061;-63
2021/06/13 10:56:55;;;;;;;7.80;6.65;;;;;;;19.87;100.00;96626.38;4964950;28;20418;-62
2021/06/13 10:59:21;;;;;;;12.85;6.32;;;;;;;19.74;100.00;96600.19;4979279;28;20101;-62
2021/06/13 11:01:57;;;;;;;7.55;5.72;;;;;;;20.22;96.77;96639.50;4962629;28;20050;-62
2021/06/13 11:04:48;;;;;;;18.10;11.05;;;;;;;20.48;98.35;96638.38;4964663;28;20113;-63
2021/06/13 11:07:25;;;;;;;12.95;8.02;;;;;;;20.72;96.89;96636.88;4962666;28;20039;-63
2021/06/13 11:10:25;;;;;;;9.98;7.28;;;;;;;20.49;94.37;96589.28;4963005;28;20513;-64
2021/06/13 11:13:00;;;;;;;11.68;7.15;;;;;;;20.75;91.58;96635.97;4969010;28;20050;-63
2021/06/13 11:15:26;;;;;;;12.20;6.97;;;;;;;21.37;93.98;96632.47;4968565;28;20557;-62
2021/06/13 11:17:57;;;;;;;7.78;5.57;;;;;;;21.81;86.59;96617.38;4969246;28;20113;-63
2021/06/13 11:20:51;;;;;;;7.53;5.85;;;;;;;22.02;84.47;96621.50;4966550;28;20076;-63
2021/06/13 11:23:35;;;;;;;7.75;6.90;;;;;;;22.44;81.52;96626.41;4968425;28;20494;-62
2021/06/13 11:26:03;;;;;;;6.53;5.10;;;;;;;22.70;79.37;96615.78;4966512;28;20039;-63
2021/06/13 11:28:47;;;;;;;6.30;5.70;;;;;;;22.68;81.21;96617.50;4983526;28;20539;-62
2021/06/13 11:31:17;;;;;;;5.10;4.60;;;;;;;22.69;80.16;96630.38;4968172;28;20031;-62
2021/06/13 11:33:44;;;;;;;6.07;5.47;;;;;;;22.41;82.99;96627.31;4966582;28;20039;-62
2021/06/13 11:36:22;;;;;;;14.43;9.05;;;;;;;22.27;84.57;96627.06;4966575;28;20045;-63
2021/06/13 11:41:39;;;;;;;6.60;5.07;;;;;;;22.06;81.57;96622.16;4967975;28;20128;-62
2021/06/13 11:44:07;;;;;;;5.25;4.78;;;;;;;22.01;81.50;96623.50;4968488;28;20136;-62
2021/06/13 11:46:39;;;;;;;6.18;5.03;;;;;;;21.75;77.73;96607.88;4967932;28;20129;-62